createdAt,value
2019-04-21T00:01:30.692Z,9.40
2019-04-21T00:03:40.996Z,9.40
2019-04-21T00:05:57.551Z,9.70
2019-04-21T00:08:07.544Z,9.60
2019-04-21T00:10:13.647Z,9.60
2019-04-21T00:12:15.441Z,9.60
2019-04-21T00:14:16.959Z,9.40
2019-04-21T00:16:10.843Z,9.40
2019-04-21T00:18:40.729Z,9.30
2019-04-21T00:20:44.214Z,9.20
2019-04-21T00:22:53.330Z,9.20
2019-04-21T00:25:04.351Z,9.10
2019-04-21T00:27:09.681Z,9.10
2019-04-21T00:29:28.987Z,9.20
2019-04-21T00:31:24.715Z,9.10
2019-04-21T00:33:17.851Z,9.10
2019-04-21T00:35:20.647Z,9.10
2019-04-21T00:37:42.515Z,9.10
2019-04-21T00:39:58.797Z,8.90
2019-04-21T00:41:56.324Z,8.90
2019-04-21T00:43:55.394Z,8.90
2019-04-21T00:45:55.662Z,8.90
2019-04-21T00:48:11.375Z,8.80
2019-04-21T00:50:10.809Z,8.80
2019-04-21T00:54:52.094Z,8.80
2019-04-21T00:56:49.635Z,8.80
2019-04-21T00:58:56.072Z,8.60
2019-04-21T01:00:58.556Z,8.50
2019-04-21T01:03:04.643Z,8.50
2019-04-21T01:05:15.153Z,8.70
2019-04-21T01:07:12.439Z,8.70
2019-04-21T01:09:16.597Z,8.60
2019-04-21T01:11:29.777Z,8.60
2019-04-21T01:13:33.342Z,8.70
2019-04-21T01:15:59.633Z,8.70
2019-04-21T01:17:40.514Z,8.70
2019-04-21T01:19:49.138Z,8.80
2019-04-21T01:21:31.178Z,8.70
2019-04-21T01:23:35.840Z,8.70
2019-04-21T01:25:50.405Z,8.60
2019-04-21T01:28:02.218Z,8.80
2019-04-21T01:30:14.642Z,8.50
2019-04-21T01:32:18.705Z,8.20
2019-04-21T01:34:27.083Z,8.10
2019-04-21T01:36:24.558Z,8.20
2019-04-21T01:38:34.433Z,8.10
2019-04-21T01:40:42.838Z,7.80
2019-04-21T01:42:45.959Z,7.80
2019-04-21T01:44:53.382Z,7.90
2019-04-21T01:46:58.225Z,7.90
2019-04-21T01:49:03.343Z,7.90
2019-04-21T01:51:10.049Z,7.90
2019-04-21T01:53:34.814Z,7.80
2019-04-21T01:55:52.528Z,7.40
2019-04-21T01:57:58.291Z,7.40
2019-04-21T01:59:59.771Z,7.50
2019-04-21T02:02:18.787Z,7.30
2019-04-21T02:04:24.127Z,7.30
2019-04-21T02:06:27.533Z,7.30
2019-04-21T02:08:27.509Z,7.40
2019-04-21T02:10:41.475Z,7.30
2019-04-21T02:12:48.788Z,7.60
2019-04-21T02:15:03.221Z,7.40
2019-04-21T02:16:54.406Z,7.40
2019-04-21T02:18:55.230Z,7.50
2019-04-21T02:20:55.421Z,7.50
2019-04-21T02:25:20.135Z,7.00
2019-04-21T02:27:23.779Z,7.30
2019-04-21T02:33:54.212Z,7.30
2019-04-21T02:36:00.527Z,7.00
2019-04-21T02:42:09.380Z,7.00
2019-04-21T02:44:24.019Z,7.00
2019-04-21T02:48:39.104Z,6.90
2019-04-21T02:50:47.083Z,7.10
2019-04-21T02:52:50.088Z,7.00
2019-04-21T02:54:54.056Z,7.10
2019-04-21T02:57:02.807Z,7.20
2019-04-21T02:59:10.884Z,7.20
2019-04-21T03:03:27.643Z,7.00
2019-04-21T03:05:43.373Z,7.00
2019-04-21T03:07:44.576Z,7.00
2019-04-21T03:09:46.071Z,7.00
2019-04-21T03:11:56.441Z,7.00
2019-04-21T03:16:11.893Z,6.80
2019-04-21T03:20:17.572Z,6.60
2019-04-21T03:22:20.013Z,6.70
2019-04-21T03:24:29.009Z,7.00
2019-04-21T03:26:36.374Z,6.90
2019-04-21T03:31:08.961Z,6.60
2019-04-21T03:35:34.513Z,6.90
2019-04-21T03:39:01.275Z,6.70
2019-04-21T03:41:16.105Z,6.60
2019-04-21T03:43:20.827Z,6.60
2019-04-21T03:45:40.636Z,6.60
2019-04-21T03:49:45.681Z,6.50
2019-04-21T03:51:37.144Z,6.60
2019-04-21T03:53:46.191Z,6.40
2019-04-21T03:55:51.087Z,6.30
2019-04-21T04:00:08.973Z,6.20
2019-04-21T04:04:47.536Z,6.00
2019-04-21T04:07:06.000Z,6.10
2019-04-21T04:12:13.223Z,6.20
2019-04-21T04:13:29.524Z,6.20
2019-04-21T04:15:42.189Z,6.10
2019-04-21T04:17:32.951Z,5.70
2019-04-21T04:19:40.004Z,5.50
2019-04-21T04:21:47.737Z,5.60
2019-04-21T04:26:04.882Z,5.90
2019-04-21T04:30:21.650Z,6.20
2019-04-21T04:32:14.495Z,6.30
2019-04-21T04:36:39.135Z,6.00
2019-04-21T04:40:51.764Z,6.10
2019-04-21T04:45:08.201Z,6.10
2019-04-21T04:47:10.277Z,6.00
2019-04-21T04:49:10.661Z,5.90
2019-04-21T04:51:12.290Z,6.00
2019-04-21T04:55:25.767Z,5.70
2019-04-21T04:59:43.739Z,5.80
2019-04-21T05:04:07.581Z,5.90
2019-04-21T05:08:49.353Z,6.00
2019-04-21T05:10:49.167Z,6.10
2019-04-21T05:12:39.010Z,6.20
2019-04-21T05:14:48.371Z,6.10
2019-04-21T05:21:16.070Z,6.10
2019-04-21T05:23:06.325Z,6.40
2019-04-21T05:25:06.986Z,6.40
2019-04-21T05:27:28.200Z,6.50
2019-04-21T05:29:53.970Z,6.70
2019-04-21T05:32:04.608Z,7.00
2019-04-21T05:34:09.729Z,7.00
2019-04-21T05:36:27.875Z,7.30
2019-04-21T05:38:41.850Z,7.30
2019-04-21T05:40:43.742Z,7.40
2019-04-21T05:42:55.512Z,7.50
2019-04-21T05:45:09.173Z,7.40
2019-04-21T05:47:22.139Z,7.50
2019-04-21T05:49:27.993Z,7.70
2019-04-21T05:51:30.605Z,7.70
2019-04-21T05:53:40.503Z,7.60
2019-04-21T05:55:49.231Z,7.70
2019-04-21T05:57:58.718Z,8.00
2019-04-21T06:00:01.207Z,8.10
2019-04-21T06:02:19.114Z,8.20
2019-04-21T06:04:34.681Z,8.30
2019-04-21T06:06:31.016Z,8.30
2019-04-21T06:10:38.516Z,8.30
2019-04-21T06:12:44.951Z,8.10
2019-04-21T06:14:52.243Z,8.30
2019-04-21T06:16:56.991Z,8.40
2019-04-21T06:18:58.301Z,8.60
2019-04-21T06:21:05.690Z,8.60
2019-04-21T06:23:07.833Z,8.80
2019-04-21T06:25:42.863Z,8.70
2019-04-21T06:27:22.671Z,8.60
2019-04-21T06:29:23.753Z,8.50
2019-04-21T06:32:02.019Z,8.50
2019-04-21T06:33:41.751Z,8.70
2019-04-21T06:36:23.971Z,8.80
2019-04-21T06:38:13.833Z,8.90
2019-04-21T06:42:14.754Z,9.10
2019-04-21T06:44:24.625Z,9.30
2019-04-21T06:46:40.458Z,9.40
2019-04-21T06:48:40.854Z,9.50
2019-04-21T06:50:50.398Z,9.60
2019-04-21T06:52:57.870Z,9.60
2019-04-21T06:54:54.903Z,9.70
2019-04-21T06:56:56.645Z,9.80
2019-04-21T06:59:06.101Z,9.80
2019-04-21T07:01:15.769Z,9.80
2019-04-21T07:03:19.332Z,10.00
2019-04-21T07:05:26.471Z,10.00
2019-04-21T07:07:27.765Z,10.10
2019-04-21T07:09:37.931Z,10.00
2019-04-21T07:11:36.738Z,10.10
2019-04-21T07:13:53.463Z,10.20
2019-04-21T07:16:02.896Z,10.20
2019-04-21T07:18:05.633Z,10.30
2019-04-21T07:20:21.490Z,10.30
2019-04-21T07:22:19.430Z,10.60
2019-04-21T07:24:30.404Z,10.70
2019-04-21T07:26:32.837Z,10.80
2019-04-21T07:28:45.465Z,10.90
2019-04-21T07:31:00.669Z,10.90
2019-04-21T07:32:56.646Z,11.00
2019-04-21T07:34:57.701Z,11.10
2019-04-21T07:36:59.620Z,11.20
2019-04-21T07:39:00.207Z,11.30
2019-04-21T07:41:02.243Z,11.40
2019-04-21T07:43:15.159Z,11.50
2019-04-21T07:45:16.592Z,11.50
2019-04-21T07:47:30.613Z,11.60
2019-04-21T07:49:47.296Z,11.70
2019-04-21T07:51:56.773Z,11.80
2019-04-21T07:54:29.113Z,11.90
2019-04-21T07:55:51.023Z,11.90
2019-04-21T07:58:13.153Z,12.00
2019-04-21T08:00:35.860Z,12.10
2019-04-21T08:02:22.385Z,12.10
2019-04-21T08:06:40.372Z,12.30
2019-04-21T08:08:42.312Z,12.40
2019-04-21T08:10:49.547Z,12.40
2019-04-21T08:12:55.607Z,12.60
2019-04-21T08:15:09.675Z,12.50
2019-04-21T08:17:09.817Z,12.50
2019-04-21T08:19:15.591Z,12.70
2019-04-21T08:21:23.639Z,12.70
2019-04-21T08:23:29.740Z,12.80
2019-04-21T08:25:40.349Z,12.80
2019-04-21T08:27:40.380Z,12.80
2019-04-21T08:29:46.274Z,12.90
2019-04-21T08:32:06.863Z,13.00
2019-04-21T08:34:03.280Z,13.10
2019-04-21T08:38:10.375Z,13.10
2019-04-21T08:40:17.682Z,13.20
2019-04-21T08:42:21.945Z,13.20
2019-04-21T08:44:25.611Z,13.30
2019-04-21T08:46:36.308Z,13.30
2019-04-21T08:48:39.318Z,13.40
2019-04-21T08:50:37.397Z,13.50
2019-04-21T08:52:49.306Z,13.50
2019-04-21T08:54:55.879Z,13.60
2019-04-21T08:57:08.092Z,13.80
2019-04-21T08:59:18.670Z,13.80
2019-04-21T09:01:30.685Z,13.70
2019-04-21T09:03:54.023Z,13.70
2019-04-21T09:05:57.090Z,13.80
2019-04-21T09:08:05.285Z,13.90
2019-04-21T09:10:02.910Z,13.90
2019-04-21T09:12:10.350Z,14.10
2019-04-21T09:14:20.612Z,14.10
2019-04-21T09:16:20.591Z,14.10
2019-04-21T09:18:22.833Z,14.10
2019-04-21T09:20:38.724Z,14.20
2019-04-21T09:22:42.937Z,14.30
2019-04-21T09:24:46.975Z,14.20
2019-04-21T09:26:51.685Z,14.30
2019-04-21T09:28:52.094Z,14.40
2019-04-21T09:30:52.352Z,14.60
2019-04-21T09:32:55.022Z,14.60
2019-04-21T09:34:58.123Z,14.70
2019-04-21T09:37:15.233Z,14.60
2019-04-21T09:39:16.551Z,14.80
2019-04-21T09:41:24.567Z,14.90
2019-04-21T09:43:38.418Z,15.40
2019-04-21T09:45:37.707Z,15.00
2019-04-21T09:47:48.517Z,15.30
2019-04-21T09:49:49.334Z,15.10
2019-04-21T09:51:53.639Z,15.00
2019-04-21T09:54:05.836Z,15.00
2019-04-21T09:56:14.196Z,15.10
2019-04-21T09:58:26.171Z,15.10
2019-04-21T10:00:28.669Z,16.00
2019-04-21T10:02:37.524Z,16.00
2019-04-21T10:04:38.230Z,15.80
2019-04-21T10:06:43.159Z,15.60
2019-04-21T10:08:49.514Z,15.50
2019-04-21T10:10:54.600Z,15.60
2019-04-21T10:12:58.870Z,16.20
2019-04-21T10:15:06.197Z,16.30
2019-04-21T10:17:21.697Z,15.90
2019-04-21T10:19:31.625Z,16.00
2019-04-21T10:21:36.378Z,15.90
2019-04-21T10:23:41.506Z,15.90
2019-04-21T10:25:46.308Z,15.90
2019-04-21T10:27:50.733Z,16.10
2019-04-21T10:29:56.251Z,16.30
2019-04-21T10:32:01.480Z,16.40
2019-04-21T10:34:05.505Z,16.20
2019-04-21T10:36:10.758Z,16.60
2019-04-21T10:38:26.081Z,16.30
2019-04-21T10:40:21.298Z,16.20
2019-04-21T10:42:25.499Z,16.50
2019-04-21T10:44:29.501Z,16.50
2019-04-21T10:46:33.441Z,16.70
2019-04-21T10:48:38.253Z,17.00
2019-04-21T10:50:49.395Z,17.40
2019-04-21T10:53:02.860Z,17.20
2019-04-21T10:55:28.868Z,17.40
2019-04-21T10:57:33.152Z,17.40
2019-04-21T10:59:37.547Z,17.30
2019-04-21T11:01:45.718Z,16.90
2019-04-21T11:03:58.549Z,17.10
2019-04-21T11:06:08.509Z,17.20
2019-04-21T11:08:22.755Z,17.70
2019-04-21T11:10:22.171Z,17.80
2019-04-21T11:12:26.331Z,17.50
2019-04-21T11:14:31.497Z,17.40
2019-04-21T11:16:37.129Z,17.20
2019-04-21T11:18:42.196Z,17.20
2019-04-21T11:20:46.942Z,17.10
2019-04-21T11:22:51.443Z,17.90
2019-04-21T11:24:57.266Z,18.50
2019-04-21T11:27:04.642Z,18.70
2019-04-21T11:29:10.672Z,18.80
2019-04-21T11:31:15.364Z,18.50
2019-04-21T11:33:21.315Z,18.10
2019-04-21T11:35:30.813Z,18.00
2019-04-21T11:37:35.457Z,18.40
2019-04-21T11:39:51.939Z,18.60
2019-04-21T11:41:49.777Z,18.50
2019-04-21T11:43:55.028Z,18.40
2019-04-21T11:46:00.634Z,18.60
2019-04-21T11:48:24.487Z,18.70
2019-04-21T11:50:33.284Z,18.80
2019-04-21T11:52:38.851Z,18.40
2019-04-21T11:54:43.070Z,18.20
2019-04-21T11:56:48.448Z,18.10
2019-04-21T11:58:54.000Z,18.30
2019-04-21T12:01:00.280Z,18.30
2019-04-21T12:03:07.059Z,19.00
2019-04-21T12:05:11.728Z,19.50
2019-04-21T12:07:20.286Z,19.80
2019-04-21T12:09:25.100Z,20.70
2019-04-21T12:11:29.565Z,20.30
2019-04-21T12:13:34.400Z,20.70
2019-04-21T12:15:38.914Z,21.00
2019-04-21T12:17:43.999Z,20.30
2019-04-21T12:19:50.684Z,20.20
2019-04-21T12:22:05.372Z,20.50
2019-04-21T12:24:02.754Z,20.60
2019-04-21T12:26:07.533Z,20.30
2019-04-21T12:28:12.189Z,19.90
2019-04-21T12:30:17.657Z,19.80
2019-04-21T12:32:26.404Z,19.70
2019-04-21T12:34:30.382Z,19.60
2019-04-21T12:36:35.710Z,19.70
2019-04-21T12:38:46.984Z,20.10
2019-04-21T12:40:46.915Z,20.60
2019-04-21T12:42:50.824Z,22.30
2019-04-21T12:44:55.131Z,23.00
2019-04-21T12:46:59.393Z,23.50
2019-04-21T12:49:04.138Z,24.20
2019-04-21T12:51:08.332Z,25.50
2019-04-21T12:53:15.254Z,25.20
2019-04-21T12:55:17.962Z,24.50
2019-04-21T12:57:23.328Z,24.70
2019-04-21T12:59:29.693Z,23.40
2019-04-21T13:01:33.164Z,23.90
2019-04-21T13:03:37.611Z,24.90
2019-04-21T13:05:41.673Z,26.40
2019-04-21T13:07:45.694Z,25.90
2019-04-21T13:09:50.437Z,25.90
2019-04-21T13:11:55.164Z,25.30
2019-04-21T13:13:59.878Z,25.30
2019-04-21T13:16:05.261Z,26.90
2019-04-21T13:18:10.126Z,28.10
2019-04-21T13:20:14.986Z,27.30
2019-04-21T13:22:18.912Z,27.70
2019-04-21T13:24:24.034Z,28.60
2019-04-21T13:26:38.673Z,29.00
2019-04-21T13:28:34.564Z,28.70
2019-04-21T13:30:39.924Z,29.40
2019-04-21T13:32:45.218Z,28.50
2019-04-21T13:34:50.798Z,28.30
2019-04-21T13:36:54.911Z,28.10
2019-04-21T13:39:33.041Z,27.50
2019-04-21T13:41:27.361Z,27.00
2019-04-21T13:43:18.983Z,25.50
2019-04-21T13:45:23.992Z,25.40
2019-04-21T13:47:28.365Z,27.40
2019-04-21T13:49:32.333Z,29.30
2019-04-21T13:51:36.251Z,29.70
2019-04-21T13:53:40.130Z,29.00
2019-04-21T13:55:44.634Z,28.90
2019-04-21T13:57:48.644Z,29.30
2019-04-21T13:59:53.146Z,30.60
2019-04-21T14:01:58.392Z,29.40
2019-04-21T14:04:02.406Z,29.90
2019-04-21T14:06:06.634Z,31.30
2019-04-21T14:08:11.315Z,30.50
2019-04-21T14:10:17.854Z,29.00
2019-04-21T14:12:23.333Z,30.60
2019-04-21T14:14:28.334Z,31.00
2019-04-21T14:16:32.424Z,31.50
2019-04-21T14:18:36.697Z,32.00
2019-04-21T14:20:40.797Z,32.20
2019-04-21T14:22:44.696Z,32.00
2019-04-21T14:24:49.819Z,32.60
2019-04-21T14:26:54.343Z,32.20
2019-04-21T14:28:58.870Z,31.70
2019-04-21T14:31:04.278Z,32.80
2019-04-21T14:33:09.888Z,32.90
2019-04-21T14:35:14.771Z,33.10
2019-04-21T14:37:18.732Z,32.60
2019-04-21T14:39:22.901Z,32.30
2019-04-21T14:41:28.397Z,32.40
2019-04-21T14:43:32.449Z,33.40
2019-04-21T14:45:43.381Z,33.00
2019-04-21T14:47:51.352Z,33.00
2019-04-21T14:50:13.488Z,33.70
2019-04-21T14:52:19.152Z,33.90
2019-04-21T14:54:34.462Z,33.30
2019-04-21T14:56:39.634Z,33.10
2019-04-21T14:58:43.601Z,33.80
2019-04-21T15:00:57.772Z,34.00
2019-04-21T15:03:01.917Z,33.80
2019-04-21T15:05:07.505Z,34.10
2019-04-21T15:07:11.388Z,34.10
2019-04-21T15:09:15.390Z,34.80
2019-04-21T15:11:20.065Z,34.60
2019-04-21T15:13:24.004Z,33.70
2019-04-21T15:15:27.893Z,33.30
2019-04-21T15:17:31.803Z,33.90
2019-04-21T15:19:35.696Z,33.90
2019-04-21T15:21:40.502Z,34.00
2019-04-21T15:23:44.731Z,34.40
2019-04-21T15:25:50.161Z,34.20
2019-04-21T15:27:55.023Z,34.40
2019-04-21T15:30:00.461Z,34.10
2019-04-21T15:32:04.709Z,34.00
2019-04-21T15:34:08.620Z,33.80
2019-04-21T15:36:13.366Z,34.30
2019-04-21T15:38:17.893Z,34.50
2019-04-21T15:40:32.155Z,34.10
2019-04-21T15:42:28.399Z,33.80
2019-04-21T15:44:32.558Z,33.80
2019-04-21T15:46:37.595Z,33.50
2019-04-21T15:48:41.713Z,33.90
2019-04-21T15:50:46.246Z,34.30
2019-04-21T15:52:51.737Z,34.50
2019-04-21T15:54:58.862Z,34.30
2019-04-21T15:57:11.187Z,34.30
2019-04-21T15:59:26.423Z,33.70
2019-04-21T16:01:34.989Z,34.40
2019-04-21T16:03:38.900Z,33.90
2019-04-21T16:05:42.793Z,33.80
2019-04-21T16:07:47.920Z,34.40
2019-04-21T16:09:52.414Z,34.90
2019-04-21T16:11:57.841Z,35.20
2019-04-21T16:14:01.961Z,34.70
2019-04-21T16:16:06.385Z,33.60
2019-04-21T16:18:11.770Z,33.30
2019-04-21T16:20:17.693Z,33.10
2019-04-21T16:22:21.747Z,33.00
2019-04-21T16:24:27.260Z,33.70
2019-04-21T16:26:32.821Z,33.90
2019-04-21T16:28:37.415Z,33.50
2019-04-21T16:30:42.537Z,33.60
2019-04-21T16:32:46.592Z,33.00
2019-04-21T16:34:58.094Z,32.80
2019-04-21T16:36:56.689Z,33.20
2019-04-21T16:39:01.755Z,32.30
2019-04-21T16:41:09.141Z,32.20
2019-04-21T16:43:12.238Z,32.50
2019-04-21T16:45:16.896Z,32.30
2019-04-21T16:47:21.503Z,31.40
2019-04-21T16:49:25.517Z,30.90
2019-04-21T16:51:29.863Z,31.10
2019-04-21T16:53:39.741Z,30.60
2019-04-21T16:56:00.888Z,30.70
2019-04-21T16:58:16.479Z,31.10
2019-04-21T17:02:22.800Z,32.00
2019-04-21T17:04:26.791Z,31.60
2019-04-21T17:06:31.169Z,31.70
2019-04-21T17:08:36.688Z,29.90
2019-04-21T17:10:55.412Z,29.00
2019-04-21T17:12:47.786Z,28.80
2019-04-21T17:15:07.478Z,27.30
2019-04-21T17:16:21.015Z,31.10
2019-04-21T17:17:18.002Z,26.30
2019-04-21T17:19:13.706Z,25.90
2019-04-21T17:21:10.393Z,25.40
2019-04-21T17:23:15.675Z,25.30
2019-04-21T17:25:21.662Z,25.40
2019-04-21T17:27:27.081Z,25.70
2019-04-21T17:29:50.672Z,26.00
2019-04-21T17:31:55.302Z,25.40
2019-04-21T17:34:06.395Z,24.50
2019-04-21T17:36:05.272Z,24.00
2019-04-21T17:38:09.942Z,23.50
2019-04-21T17:40:17.662Z,23.00
2019-04-21T17:42:29.768Z,22.60
2019-04-21T17:44:27.757Z,22.40
2019-04-21T17:46:42.123Z,22.10
2019-04-21T17:48:38.693Z,21.70
2019-04-21T17:50:56.399Z,21.70
2019-04-21T17:53:26.505Z,21.50
2019-04-21T17:55:28.336Z,21.10
2019-04-21T17:57:51.807Z,20.80
2019-04-21T18:02:00.473Z,20.80
2019-04-21T18:04:12.585Z,20.70
2019-04-21T18:06:08.269Z,20.40
2019-04-21T18:08:21.473Z,20.30
2019-04-21T18:10:27.684Z,20.40
2019-04-21T18:12:33.749Z,20.00
2019-04-21T18:14:22.348Z,20.00
2019-04-21T18:16:35.446Z,19.90
2019-04-21T18:18:32.930Z,19.70
2019-04-21T18:20:39.914Z,19.60
2019-04-21T18:22:47.939Z,19.60
2019-04-21T18:24:59.282Z,19.60
2019-04-21T18:27:02.508Z,19.40
2019-04-21T18:29:05.584Z,19.50
2019-04-21T18:31:12.233Z,19.20
2019-04-21T18:33:25.312Z,19.10
2019-04-21T18:35:24.637Z,19.20
2019-04-21T18:37:38.420Z,19.10
2019-04-21T18:39:53.705Z,19.30
2019-04-21T18:42:06.491Z,19.20
2019-04-21T18:46:29.079Z,20.20
2019-04-21T18:48:24.585Z,20.70
2019-04-21T18:50:41.636Z,20.50
2019-04-21T18:52:56.115Z,20.80
2019-04-21T18:55:01.452Z,19.80
2019-04-21T18:57:04.414Z,19.30
2019-04-21T18:58:58.389Z,19.50
2019-04-21T19:01:07.311Z,19.50
2019-04-21T19:03:10.462Z,19.20
2019-04-21T19:05:20.710Z,18.70
2019-04-21T19:07:37.724Z,19.60
2019-04-21T19:10:10.285Z,19.30
2019-04-21T19:11:51.900Z,19.50
2019-04-21T19:16:28.019Z,18.50
2019-04-21T19:18:35.788Z,18.20
2019-04-21T19:22:31.235Z,18.00
2019-04-21T19:24:33.257Z,18.40
2019-04-21T19:26:49.693Z,18.10
2019-04-21T19:28:47.221Z,17.90
2019-04-21T19:31:04.911Z,17.90
2019-04-21T19:32:54.514Z,18.00
2019-04-21T19:34:46.086Z,18.00
2019-04-21T19:36:54.311Z,17.50
2019-04-21T19:39:04.941Z,17.20
2019-04-21T19:41:18.854Z,17.10
2019-04-21T19:43:22.321Z,17.00
2019-04-21T19:45:29.670Z,17.10
2019-04-21T19:47:40.582Z,16.80
2019-04-21T19:49:45.239Z,16.40
2019-04-21T19:51:40.586Z,16.40
2019-04-21T19:53:44.572Z,16.80
2019-04-21T19:55:40.377Z,17.00
2019-04-21T19:57:45.092Z,16.80
2019-04-21T19:59:54.976Z,16.90
2019-04-21T20:01:56.092Z,16.90
2019-04-21T20:04:01.074Z,16.60
2019-04-21T20:06:16.922Z,16.40
2019-04-21T20:08:27.807Z,16.30
2019-04-21T20:10:39.595Z,16.40
2019-04-21T20:12:48.710Z,16.20
2019-04-21T20:15:08.497Z,16.60
2019-04-21T20:16:49.326Z,16.90
2019-04-21T20:18:45.670Z,16.40
2019-04-21T20:20:46.075Z,16.70
2019-04-21T20:22:51.954Z,16.70
2019-04-21T20:25:04.735Z,17.10
2019-04-21T20:27:11.482Z,16.80
2019-04-21T20:29:24.809Z,16.60
2019-04-21T20:31:30.101Z,17.10
2019-04-21T20:35:51.903Z,16.00
2019-04-21T20:37:47.997Z,16.00
2019-04-21T20:39:47.282Z,15.90
2019-04-21T20:42:03.854Z,15.90
2019-04-21T20:44:17.046Z,15.80
2019-04-21T20:46:11.829Z,15.90
2019-04-21T20:48:13.954Z,15.80
2019-04-21T20:50:23.488Z,15.90
2019-04-21T20:52:35.580Z,15.80
2019-04-21T20:54:43.348Z,15.80
2019-04-21T20:56:42.030Z,16.10
2019-04-21T20:58:53.696Z,16.30
2019-04-21T21:01:06.368Z,16.60
2019-04-21T21:03:02.620Z,16.10
2019-04-21T21:04:59.062Z,16.10
2019-04-21T21:07:28.229Z,16.20
2019-04-21T21:09:14.246Z,15.20
2019-04-21T21:11:26.466Z,15.00
2019-04-21T21:13:36.707Z,14.80
2019-04-21T21:15:35.899Z,14.70
2019-04-21T21:19:53.177Z,14.10
2019-04-21T21:21:48.615Z,14.30
2019-04-21T21:23:58.815Z,14.20
2019-04-21T21:26:09.694Z,14.40
2019-04-21T21:28:04.346Z,14.40
2019-04-21T21:30:17.491Z,14.20
2019-04-21T21:32:25.846Z,14.10
2019-04-21T21:34:35.949Z,14.10
2019-04-21T21:36:36.689Z,14.00
2019-04-21T21:38:43.627Z,14.00
2019-04-21T21:40:45.434Z,14.00
2019-04-21T21:42:40.680Z,13.90
2019-04-21T21:44:49.564Z,13.90
2019-04-21T21:47:04.294Z,14.00
2019-04-21T21:49:01.750Z,14.00
2019-04-21T21:51:05.982Z,14.10
2019-04-21T21:53:10.469Z,14.00
2019-04-21T21:55:09.978Z,13.80
2019-04-21T21:57:14.688Z,13.90
2019-04-21T21:59:22.826Z,14.00
2019-04-21T22:01:31.901Z,14.10
2019-04-21T22:03:34.178Z,14.00
2019-04-21T22:05:49.004Z,13.90
2019-04-21T22:07:42.528Z,13.70
2019-04-21T22:09:46.657Z,13.60
2019-04-21T22:11:55.338Z,13.50
2019-04-21T22:14:02.757Z,13.60
2019-04-21T22:16:06.765Z,13.50
2019-04-21T22:18:26.757Z,13.20
2019-04-21T22:20:33.318Z,13.20
2019-04-21T22:22:31.305Z,13.10
2019-04-21T22:24:43.942Z,13.00
2019-04-21T22:26:31.527Z,12.70
2019-04-21T22:28:35.970Z,12.80
2019-04-21T22:30:45.688Z,12.90
2019-04-21T22:32:52.780Z,12.90
2019-04-21T22:34:56.512Z,12.80
2019-04-21T22:37:14.350Z,12.70
2019-04-21T22:39:19.296Z,12.60
2019-04-21T22:41:19.295Z,12.70
2019-04-21T22:43:21.753Z,12.80
2019-04-21T22:45:20.244Z,12.60
2019-04-21T22:47:29.927Z,12.70
2019-04-21T22:49:30.470Z,12.60
2019-04-21T22:51:40.710Z,12.80
2019-04-21T22:53:46.544Z,12.80
2019-04-21T22:55:49.495Z,12.80
2019-04-21T22:57:54.796Z,12.90
2019-04-21T23:00:01.347Z,12.70
2019-04-21T23:02:06.447Z,12.80
2019-04-21T23:04:10.684Z,12.90
2019-04-21T23:06:21.221Z,12.50
2019-04-21T23:08:26.665Z,12.60
2019-04-21T23:10:27.305Z,12.60
2019-04-21T23:12:36.265Z,12.80
2019-04-21T23:14:45.292Z,12.80
2019-04-21T23:16:45.607Z,12.80
2019-04-21T23:19:09.752Z,12.80
2019-04-21T23:21:10.476Z,12.70
2019-04-21T23:23:16.295Z,12.70
2019-04-21T23:25:26.495Z,12.70
2019-04-21T23:27:29.649Z,12.50
2019-04-21T23:29:49.850Z,12.40
2019-04-21T23:31:46.086Z,12.20
2019-04-21T23:33:32.722Z,12.10
2019-04-21T23:35:40.563Z,12.10
2019-04-21T23:37:52.054Z,12.00
2019-04-21T23:39:54.684Z,11.80
2019-04-21T23:41:55.930Z,11.70
2019-04-21T23:44:05.890Z,11.50
2019-04-21T23:46:11.878Z,11.30
2019-04-21T23:48:27.183Z,11.70
2019-04-21T23:50:30.461Z,11.80
2019-04-21T23:52:23.740Z,11.60
2019-04-21T23:54:28.913Z,11.60
2019-04-21T23:56:37.775Z,11.50
2019-04-21T23:58:40.298Z,11.30
